DLH63K EDDF-LFPG
Flight info
| Callsign | DLH63K |
|---|---|
| Flight time | N/A |
| Altitude | 24000 |
| Route | SOBRA2L/18 SOBRA Y180 DIK UN857 TOLVU DCT RAPOR DCT VEDUS |
| Aircraft | A21N/M-SDE3FGHIRWY/LB1 |
Departure
| Time | N/A |
|---|---|
| Airport | Frankfurt Main Airport (EDDF) |
Arrival
| Time | 2026-05-01 07:50 |
|---|---|
| Airport | Charles de Gaulle International Airport (LFPG) |
| Time | Latitude | Longitude | Altitude | Speed | Heading |
|---|---|---|---|---|---|
| 2026-05-01 07:23 | 49.56598 | 4.93626 | 24239 ft | 434 kts | 261° |
| 2026-05-01 07:23 | 49.55752 | 4.84424 | 24238 ft | 434 kts | 261° |
| 2026-05-01 07:24 | 49.55322 | 4.79815 | 24237 ft | 434 kts | 261° |
| 2026-05-01 07:24 | 49.54895 | 4.75255 | 24238 ft | 434 kts | 261° |
| 2026-05-01 07:24 | 49.54465 | 4.70685 | 24237 ft | 435 kts | 261° |
| 2026-05-01 07:24 | 49.54031 | 4.66078 | 24236 ft | 435 kts | 261° |
| 2026-05-01 07:25 | 49.53597 | 4.61492 | 24236 ft | 435 kts | 261° |
| 2026-05-01 07:25 | 49.53157 | 4.56876 | 24237 ft | 435 kts | 261° |
| 2026-05-01 07:25 | 49.52719 | 4.52290 | 24238 ft | 435 kts | 260° |
| 2026-05-01 07:25 | 49.52282 | 4.47746 | 24235 ft | 430 kts | 260° |
| 2026-05-01 07:26 | 49.51857 | 4.43319 | 24232 ft | 415 kts | 260° |
| 2026-05-01 07:26 | 49.51434 | 4.38930 | 24232 ft | 413 kts | 260° |
| 2026-05-01 07:26 | 49.51012 | 4.34604 | 24231 ft | 412 kts | 259° |
| 2026-05-01 07:26 | 49.50583 | 4.30199 | 23853 ft | 413 kts | 259° |
| 2026-05-01 07:27 | 49.50162 | 4.25915 | 23434 ft | 408 kts | 259° |
| 2026-05-01 07:27 | 49.49743 | 4.21664 | 22973 ft | 404 kts | 259° |
| 2026-05-01 07:27 | 49.49324 | 4.17413 | 22463 ft | 401 kts | 259° |
| 2026-05-01 07:27 | 49.48907 | 4.13197 | 21953 ft | 398 kts | 259° |
| 2026-05-01 07:28 | 49.48493 | 4.09048 | 21472 ft | 394 kts | 259° |
| 2026-05-01 07:28 | 49.48077 | 4.04875 | 20987 ft | 391 kts | 259° |
| 2026-05-01 07:28 | 49.47668 | 4.00800 | 20467 ft | 389 kts | 259° |
| 2026-05-01 07:28 | 49.47253 | 3.96687 | 19731 ft | 397 kts | 259° |
| 2026-05-01 07:29 | 49.46823 | 3.92459 | 19142 ft | 402 kts | 259° |
| 2026-05-01 07:29 | 49.46397 | 3.88251 | 18598 ft | 401 kts | 259° |
| 2026-05-01 07:29 | 49.45970 | 3.84057 | 18076 ft | 399 kts | 259° |
| 2026-05-01 07:29 | 49.45542 | 3.79845 | 17565 ft | 395 kts | 259° |
| 2026-05-01 07:30 | 49.45119 | 3.75714 | 17053 ft | 392 kts | 259° |
| 2026-05-01 07:30 | 49.44698 | 3.71607 | 16542 ft | 389 kts | 259° |
| 2026-05-01 07:30 | 49.44279 | 3.67543 | 16033 ft | 386 kts | 259° |
| 2026-05-01 07:30 | 49.43859 | 3.63484 | 15526 ft | 383 kts | 259° |
| 2026-05-01 07:31 | 49.43442 | 3.59489 | 15244 ft | 381 kts | 259° |
| 2026-05-01 07:31 | 49.42147 | 3.47491 | 15215 ft | 381 kts | 256° |
| 2026-05-01 07:32 | 49.40530 | 3.39761 | 15214 ft | 379 kts | 246° |
| 2026-05-01 07:32 | 49.39546 | 3.36078 | 15212 ft | 379 kts | 245° |
| 2026-05-01 07:33 | 49.37520 | 3.28598 | 15209 ft | 379 kts | 245° |
| 2026-05-01 07:33 | 49.36515 | 3.24882 | 15211 ft | 379 kts | 245° |
| 2026-05-01 07:33 | 49.34586 | 3.17719 | 15207 ft | 348 kts | 245° |
| 2026-05-01 07:34 | 49.33676 | 3.14345 | 15211 ft | 342 kts | 244° |
| 2026-05-01 07:34 | 49.31859 | 3.07637 | 15214 ft | 341 kts | 245° |
| 2026-05-01 07:34 | 49.30947 | 3.04276 | 15195 ft | 339 kts | 245° |
| 2026-05-01 07:35 | 49.30052 | 3.00974 | 14896 ft | 335 kts | 244° |
| 2026-05-01 07:35 | 49.29158 | 2.97687 | 14373 ft | 336 kts | 245° |
| 2026-05-01 07:35 | 49.28259 | 2.94384 | 13896 ft | 335 kts | 245° |
| 2026-05-01 07:35 | 49.27366 | 2.91106 | 13457 ft | 333 kts | 245° |
| 2026-05-01 07:36 | 49.26484 | 2.87872 | 13255 ft | 329 kts | 245° |
| 2026-05-01 07:36 | 49.25613 | 2.84677 | 13077 ft | 326 kts | 245° |
| 2026-05-01 07:36 | 49.24734 | 2.81461 | 12620 ft | 326 kts | 245° |
| 2026-05-01 07:36 | 49.23869 | 2.78311 | 12153 ft | 325 kts | 245° |
| 2026-05-01 07:37 | 49.22136 | 2.71989 | 11327 ft | 319 kts | 245° |
| 2026-05-01 07:37 | 49.21285 | 2.68896 | 11197 ft | 318 kts | 245° |
| 2026-05-01 07:37 | 49.20418 | 2.65747 | 11196 ft | 319 kts | 245° |
| 2026-05-01 07:38 | 49.19561 | 2.62636 | 11204 ft | 319 kts | 245° |
| 2026-05-01 07:38 | 49.18710 | 2.59528 | 11197 ft | 320 kts | 247° |
| 2026-05-01 07:38 | 49.17943 | 2.52853 | 11162 ft | 320 kts | 266° |
| 2026-05-01 07:39 | 49.17881 | 2.49458 | 10831 ft | 316 kts | 268° |
| 2026-05-01 07:39 | 49.17836 | 2.46192 | 10652 ft | 306 kts | 267° |
| 2026-05-01 07:39 | 49.17673 | 2.39867 | 10092 ft | 293 kts | 260° |
| 2026-05-01 07:40 | 49.17230 | 2.36829 | 9714 ft | 290 kts | 253° |
| 2026-05-01 07:40 | 49.16691 | 2.33886 | 9352 ft | 288 kts | 252° |
| 2026-05-01 07:40 | 49.16146 | 2.31005 | 8985 ft | 285 kts | 252° |
| 2026-05-01 07:40 | 49.15591 | 2.28092 | 8620 ft | 283 kts | 251° |
| 2026-05-01 07:41 | 49.15046 | 2.25247 | 8243 ft | 281 kts | 251° |
| 2026-05-01 07:41 | 49.14497 | 2.22408 | 7862 ft | 279 kts | 252° |
| 2026-05-01 07:41 | 49.13391 | 2.16751 | 7130 ft | 276 kts | 252° |
| 2026-05-01 07:42 | 49.12841 | 2.13986 | 6766 ft | 274 kts | 252° |
| 2026-05-01 07:42 | 49.12286 | 2.11219 | 6399 ft | 272 kts | 252° |
| 2026-05-01 07:42 | 49.11720 | 2.08485 | 6030 ft | 269 kts | 248° |
| 2026-05-01 07:42 | 49.10722 | 2.06126 | 5618 ft | 266 kts | 221° |
| 2026-05-01 07:43 | 49.09123 | 2.04787 | 5245 ft | 261 kts | 193° |
| 2026-05-01 07:43 | 49.07366 | 2.04443 | 5064 ft | 251 kts | 183° |
| 2026-05-01 07:43 | 49.04203 | 2.05891 | 4486 ft | 242 kts | 137° |
| 2026-05-01 07:44 | 49.01984 | 2.09513 | 4151 ft | 225 kts | 132° |
| 2026-05-01 07:44 | 49.00511 | 2.13537 | 3957 ft | 224 kts | 100° |
| 2026-05-01 07:45 | 49.00429 | 2.15899 | 3959 ft | 226 kts | 88° |
| 2026-05-01 07:45 | 49.00596 | 2.18292 | 3955 ft | 226 kts | 83° |
| 2026-05-01 07:45 | 49.00800 | 2.20667 | 3956 ft | 226 kts | 84° |
| 2026-05-01 07:45 | 49.00969 | 2.23009 | 3958 ft | 226 kts | 85° |
| 2026-05-01 07:46 | 49.01108 | 2.25420 | 3815 ft | 226 kts | 86° |
| 2026-05-01 07:46 | 49.01225 | 2.27786 | 3523 ft | 225 kts | 86° |
| 2026-05-01 07:46 | 49.01446 | 2.32507 | 2943 ft | 220 kts | 86° |
| 2026-05-01 07:47 | 49.01555 | 2.34757 | 2738 ft | 205 kts | 86° |
| 2026-05-01 07:47 | 49.01660 | 2.36835 | 2422 ft | 192 kts | 87° |
| 2026-05-01 07:47 | 49.01761 | 2.38792 | 2138 ft | 180 kts | 87° |
| 2026-05-01 07:47 | 49.01855 | 2.40622 | 1902 ft | 166 kts | 88° |
| 2026-05-01 07:48 | 49.02022 | 2.43809 | 1471 ft | 136 kts | 88° |
| 2026-05-01 07:48 | 49.02094 | 2.45213 | 1304 ft | 132 kts | 88° |
| 2026-05-01 07:48 | 49.02164 | 2.46597 | 1146 ft | 131 kts | 88° |
| 2026-05-01 07:49 | 49.02236 | 2.47974 | 972 ft | 130 kts | 87° |
| 2026-05-01 07:49 | 49.02381 | 2.50705 | 628 ft | 129 kts | 87° |
| 2026-05-01 07:49 | 49.02450 | 2.52087 | 484 ft | 129 kts | 86° |
| 2026-05-01 07:50 | 49.02521 | 2.53400 | 377 ft | 116 kts | 86° |
| 2026-05-01 07:50 | 49.02601 | 2.54920 | 376 ft | 34 kts | 86° |
| 2026-05-01 07:50 | 49.02585 | 2.55213 | 379 ft | 19 kts | 105° |
| 2026-05-01 07:51 | 49.02540 | 2.55379 | 380 ft | 11 kts | 115° |
| 2026-05-01 07:51 | 49.02512 | 2.55467 | 380 ft | 9 kts | 115° |
| 2026-05-01 07:51 | 49.02501 | 2.55504 | 380 ft | 0 kts | 114° |
| 2026-05-01 07:53 | 49.02491 | 2.55534 | 380 ft | 6 kts | 114° |
| 2026-05-01 07:53 | 49.02448 | 2.55602 | 380 ft | 11 kts | 163° |
| 2026-05-01 07:53 | 49.02337 | 2.55622 | 379 ft | 19 kts | 175° |
| 2026-05-01 07:53 | 49.02195 | 2.55641 | 377 ft | 19 kts | 175° |
| 2026-05-01 07:54 | 49.01949 | 2.55671 | 371 ft | 9 kts | 174° |
| 2026-05-01 07:55 | 49.01874 | 2.55392 | 370 ft | 11 kts | 265° |
| 2026-05-01 07:55 | 49.01856 | 2.55064 | 370 ft | 17 kts | 264° |
| 2026-05-01 07:56 | 49.01826 | 2.54482 | 366 ft | 17 kts | 264° |
| 2026-05-01 07:56 | 49.01791 | 2.54360 | 366 ft | 7 kts | 115° |
| 2026-05-01 07:57 | 49.01769 | 2.54444 | 365 ft | 10 kts | 117° |
| 2026-05-01 07:57 | 49.01636 | 2.54664 | 366 ft | 17 kts | 149° |
| 2026-05-01 07:58 | 49.01398 | 2.54747 | 361 ft | 18 kts | 185° |
| 2026-05-01 07:58 | 49.01214 | 2.54590 | 358 ft | 13 kts | 255° |
| 2026-05-01 07:59 | 49.01225 | 2.54361 | 360 ft | 8 kts | 311° |
| 2026-05-01 07:59 | 49.01328 | 2.54323 | 363 ft | 8 kts | 17° |